Schneifelwetter: Wetterstation Hallschlag, 537 m . NN
Wetterdaten: Samstag, 01.09.2012
Datum Zeit Temp. A. Feuchte A. Luftdruck Regen Wind Richtung Richtung Sonnenschein T Regen Taupunkt Windchill
01.09.2012 00:08 7,3 C 93 % 1023 hPa 0,0 l/m 18,8 km/h (3 Bft) N-NO22.5 30 0 min 0 min 6,2 C 0,2 C
01.09.2012 00:23 7,4 C 93 % 1023 hPa 0,0 l/m 17,4 km/h (3 Bft) N-NO45 15 0 min 0 min 6,3 C 0,9 C
01.09.2012 00:38 7,6 C 93 % 1022 hPa 0,0 l/m 16,8 km/h (3 Bft) N45 350 0 min 0 min 6,5 C 1,4 C
01.09.2012 00:53 7,7 C 93 % 1023 hPa 0,0 l/m 14,6 km/h (3 Bft) N-NW45 345 0 min 0 min 6,6 C 2,5 C
01.09.2012 01:08 7,8 C 94 % 1023 hPa 0,0 l/m 13,4 km/h (3 Bft) N67.5 360 0 min 0 min 6,9 C 3,2 C
01.09.2012 01:23 7,9 C 93 % 1023 hPa 0,0 l/m 20,5 km/h (4 Bft) N-NO67.5 15 0 min 0 min 6,8 C 0,4 C
01.09.2012 01:38 8,0 C 93 % 1023 hPa 0,0 l/m 18,0 km/h (3 Bft) N22.5 5 0 min 0 min 6,9 C 1,4 C
01.09.2012 01:53 8,0 C 93 % 1023 hPa 0,0 l/m 15,4 km/h (3 Bft) N45 360 0 min 0 min 6,9 C 2,5 C
01.09.2012 02:08 8,0 C 93 % 1023 hPa 0,0 l/m 14,8 km/h (3 Bft) N-NO22.5 15 0 min 0 min 6,9 C 2,8 C
01.09.2012 02:23 7,9 C 93 % 1023 hPa 0,0 l/m 13,6 km/h (3 Bft) N67.5 5 0 min 0 min 6,8 C 3,3 C
01.09.2012 02:38 7,7 C 93 % 1023 hPa 0,0 l/m 13,8 km/h (3 Bft) N-NO67.5 15 0 min 0 min 6,6 C 2,9 C
01.09.2012 02:53 7,5 C 92 % 1023 hPa 0,0 l/m 17,3 km/h (3 Bft) N67.5 360 0 min 0 min 6,3 C 1,1 C
01.09.2012 03:08 7,4 C 92 % 1023 hPa 0,0 l/m 15,5 km/h (3 Bft) N45 360 0 min 0 min 6,2 C 1,8 C
01.09.2012 03:23 7,4 C 92 % 1023 hPa 0,0 l/m 1,2 km/h (1 Bft) N 350 0 min 0 min 6,2 C 7,4 C
01.09.2012 03:38 7,4 C 93 % 1023 hPa 0,0 l/m 10,4 km/h (2 Bft) N22.5 5 0 min 0 min 6,3 C 4,5 C
01.09.2012 03:53 7,5 C 93 % 1023 hPa 0,0 l/m 8,6 km/h (2 Bft) N-NW22.5 335 0 min 0 min 6,4 C 5,8 C
01.09.2012 04:08 7,5 C 93 % 1023 hPa 0,0 l/m 11,1 km/h (2 Bft) N45 350 0 min 0 min 6,4 C 4,2 C
01.09.2012 04:23 7,5 C 93 % 1023 hPa 0,0 l/m 14,0 km/h (3 Bft) N-NW22.5 330 0 min 0 min 6,4 C 2,6 C
01.09.2012 04:38 7,5 C 93 % 1023 hPa 0,0 l/m 17,4 km/h (3 Bft) N45 355 0 min 0 min 6,4 C 1,1 C
01.09.2012 04:53 7,6 C 93 % 1023 hPa 0,0 l/m 17,0 km/h (3 Bft) N67.5 350 0 min 0 min 6,5 C 1,3 C
01.09.2012 05:08 7,6 C 93 % 1023 hPa 0,0 l/m 12,5 km/h (3 Bft) N45 350 0 min 0 min 6,5 C 3,5 C
01.09.2012 05:23 7,6 C 93 % 1023 hPa 0,0 l/m 19,6 km/h (3 Bft) N67.5 355 0 min 0 min 6,5 C 0,3 C
01.09.2012 05:38 7,6 C 93 % 1023 hPa 0,0 l/m 16,1 km/h (3 Bft) N22.5 10 0 min 0 min 6,5 C 1,7 C
01.09.2012 05:53 7,7 C 93 % 1023 hPa 0,0 l/m 18,3 km/h (3 Bft) N22.5 10 0 min 0 min 6,6 C 0,9 C
01.09.2012 06:08 7,7 C 93 % 1023 hPa 0,0 l/m 16,9 km/h (3 Bft) N45 10 0 min 0 min 6,6 C 1,5 C
01.09.2012 06:23 7,6 C 93 % 1023 hPa 0,0 l/m 13,3 km/h (3 Bft) N22.5 350 0 min 0 min 6,5 C 3,1 C
01.09.2012 06:38 7,2 C 93 % 1023 hPa 0,0 l/m 13,3 km/h (3 Bft) NO22.5 35 0 min 0 min 6,1 C 2,6 C
01.09.2012 06:53 6,9 C 93 % 1023 hPa 0,0 l/m 12,1 km/h (2 Bft) N22.5 5 0 min 0 min 5,8 C 2,9 C
01.09.2012 07:08 6,7 C 93 % 1023 hPa 0,0 l/m 8,8 km/h (2 Bft) N-NO 25 0 min 0 min 5,6 C 4,8 C
01.09.2012 07:23 6,6 C 94 % 1023 hPa 0,0 l/m 11,3 km/h (2 Bft) N-NO 20 0 min 0 min 5,7 C 3,0 C
01.09.2012 07:38 6,7 C 94 % 1023 hPa 0,0 l/m 10,3 km/h (2 Bft) N-NO 25 0 min 0 min 5,8 C 3,8 C
01.09.2012 07:53 7,0 C 94 % 1023 hPa 0,0 l/m 10,6 km/h (2 Bft) N-NO 30 0 min 0 min 6,1 C 3,9 C
01.09.2012 08:08 7,2 C 94 % 1023 hPa 0,0 l/m 9,4 km/h (2 Bft) N-NO 25 0 min 0 min 6,3 C 4,9 C
01.09.2012 08:23 7,6 C 94 % 1023 hPa 0,0 l/m 13,4 km/h (3 Bft) N-NO22.5 15 0 min 0 min 6,7 C 3,0 C
01.09.2012 08:37 8,0 C 93 % 1024 hPa 0,0 l/m 10,5 km/h (2 Bft) N22.5 355 0 min 0 min 6,9 C 5,1 C
01.09.2012 08:52 8,6 C 91 % 1024 hPa 0,0 l/m 16,6 km/h (3 Bft) N-NO22.5 25 0 min 0 min 7,2 C 2,8 C
01.09.2012 09:14 9,2 C 89 % 1024 hPa 0,0 l/m 21,4 km/h (4 Bft) N45 10 0 min 0 min 7,5 C 1,8 C
01.09.2012 09:29 9,8 C 86 % 1024 hPa 0,0 l/m 20,0 km/h (4 Bft) N-NO67.5 15 0 min 0 min 7,6 C 3,0 C
01.09.2012 09:44 10,2 C 82 % 1024 hPa 0,0 l/m 23,3 km/h (4 Bft) NO22.5 35 0 min 0 min 7,3 C 2,6 C
01.09.2012 09:58 10,6 C 79 % 1024 hPa 0,0 l/m 24,8 km/h (4 Bft) N-NO45 30 0 min 0 min 7,1 C 2,7 C
01.09.2012 10:14 10,5 C 78 % 1024 hPa 0,0 l/m 23,4 km/h (4 Bft) N-NO22.5 30 0 min 0 min 6,8 C 2,9 C
01.09.2012 10:29 10,5 C 79 % 1024 hPa 0,0 l/m 18,2 km/h (3 Bft) N-NO45 15 0 min 0 min 7,0 C 4,5 C
01.09.2012 10:44 11,2 C 78 % 1024 hPa 0,0 l/m 22,0 km/h (4 Bft) NO67.5 55 0 min 0 min 7,5 C 4,2 C
01.09.2012 10:59 11,6 C 74 % 1024 hPa 0,0 l/m 22,7 km/h (4 Bft) N-NO45 20 0 min 0 min 7,1 C 4,6 C
01.09.2012 11:14 12,6 C 73 % 1025 hPa 0,0 l/m 19,8 km/h (3 Bft) NO22.5 35 0 min 0 min 7,9 C 6,7 C
01.09.2012 11:28 13,6 C 72 % 1025 hPa 0,0 l/m 21,6 km/h (4 Bft) O-NO67.5 60 0 min 0 min 8,6 C 7,5 C
01.09.2012 11:44 13,0 C 66 % 1024 hPa 0,0 l/m 21,4 km/h (4 Bft) NO67.5 35 0 min 0 min 6,8 C 6,8 C
01.09.2012 11:59 13,1 C 70 % 1025 hPa 0,0 l/m 19,4 km/h (3 Bft) NO67.5 55 0 min 0 min 7,8 C 7,5 C
01.09.2012 12:14 12,7 C 71 % 1025 hPa 0,0 l/m 19,8 km/h (3 Bft) N-NO22.5 25 0 min 0 min 7,6 C 6,8 C
01.09.2012 12:29 12,7 C 70 % 1025 hPa 0,0 l/m 18,0 km/h (3 Bft) N45 10 0 min 0 min 7,4 C 7,4 C
01.09.2012 12:44 12,5 C 69 % 1025 hPa 0,0 l/m 19,1 km/h (3 Bft) N-NO45 25 0 min 0 min 7,0 C 6,8 C
01.09.2012 12:58 13,2 C 69 % 1025 hPa 0,0 l/m 19,8 km/h (3 Bft) N-NO45 30 0 min 0 min 7,6 C 7,5 C
01.09.2012 13:14 13,2 C 67 % 1024 hPa 0,0 l/m 16,6 km/h (3 Bft) N45 5 0 min 0 min 7,2 C 8,5 C
01.09.2012 13:29 13,4 C 67 % 1024 hPa 0,0 l/m 25,1 km/h (4 Bft) N-NO45 25 0 min 0 min 7,4 C 6,4 C
01.09.2012 13:44 13,5 C 66 % 1024 hPa 0,0 l/m 24,0 km/h (4 Bft) NO45 35 0 min 0 min 7,3 C 6,8 C
01.09.2012 13:59 13,9 C 66 % 1024 hPa 0,0 l/m 16,6 km/h (3 Bft) NO22.5 40 0 min 0 min 7,7 C 9,3 C
01.09.2012 14:14 13,9 C 66 % 1024 hPa 0,0 l/m 16,2 km/h (3 Bft) N-NO45 15 0 min 0 min 7,7 C 9,5 C
01.09.2012 14:28 14,1 C 64 % 1024 hPa 0,0 l/m 15,1 km/h (3 Bft) NO45 50 0 min 0 min 7,4 C 10,1 C
01.09.2012 14:44 14,3 C 65 % 1024 hPa 0,0 l/m 17,1 km/h (3 Bft) NO45 35 0 min 0 min 7,8 C 9,7 C
01.09.2012 14:59 14,6 C 64 % 1024 hPa 0,0 l/m 17,6 km/h (3 Bft) NO45 40 0 min 0 min 7,9 C 9,9 C
01.09.2012 15:14 15,2 C 63 % 1024 hPa 0,0 l/m 24,0 km/h (4 Bft) N-NO67.5 15 0 min 0 min 8,2 C 9,1 C
01.09.2012 15:29 15,4 C 63 % 1024 hPa 0,0 l/m 17,2 km/h (3 Bft) N-NO67.5 15 0 min 0 min 8,4 C 11,0 C
01.09.2012 15:44 15,2 C 62 % 1024 hPa 0,0 l/m 14,5 km/h (3 Bft) N-NO 30 0 min 0 min 8,0 C 11,6 C
01.09.2012 15:58 15,5 C 64 % 1024 hPa 0,0 l/m 11,3 km/h (2 Bft) O-NO45 70 0 min 0 min 8,7 C 13,1 C
01.09.2012 16:14 15,4 C 63 % 1024 hPa 0,0 l/m 13,5 km/h (3 Bft) NO67.5 50 0 min 0 min 8,4 C 12,2 C
01.09.2012 16:29 15,2 C 62 % 1024 hPa 0,0 l/m 17,5 km/h (3 Bft) N67.5 5 0 min 0 min 8,0 C 10,7 C
01.09.2012 16:44 15,5 C 61 % 1024 hPa 0,0 l/m 21,2 km/h (4 Bft) NO22.5 35 0 min 0 min 8,0 C 10,1 C
01.09.2012 16:59 15,6 C 63 % 1024 hPa 0,0 l/m 21,6 km/h (4 Bft) N-NO22.5 25 0 min 0 min 8,6 C 10,1 C
01.09.2012 17:14 15,2 C 63 % 1024 hPa 0,0 l/m 17,2 km/h (3 Bft) N-NO45 30 0 min 0 min 8,2 C 10,8 C
01.09.2012 17:28 14,8 C 63 % 1024 hPa 0,0 l/m 15,0 km/h (3 Bft) N-NO22.5 30 0 min 0 min 7,8 C 10,9 C
01.09.2012 17:44 15,0 C 66 % 1024 hPa 0,0 l/m 15,2 km/h (3 Bft) O-SO45 120 0 min 0 min 8,7 C 11,1 C
01.09.2012 17:59 14,7 C 66 % 1024 hPa 0,0 l/m 13,6 km/h (3 Bft) O45 95 0 min 0 min 8,4 C 11,3 C
01.09.2012 18:14 14,5 C 67 % 1024 hPa 0,0 l/m 14,3 km/h (3 Bft) NO45 55 0 min 0 min 8,4 C 10,8 C
01.09.2012 18:29 14,4 C 68 % 1024 hPa 0,0 l/m 10,4 km/h (2 Bft) O-NO67.5 70 0 min 0 min 8,6 C 12,3 C
01.09.2012 18:44 14,6 C 67 % 1024 hPa 0,0 l/m 11,8 km/h (2 Bft) O-SO45 105 0 min 0 min 8,5 C 11,9 C
01.09.2012 18:58 14,2 C 67 % 1024 hPa 0,0 l/m 11,3 km/h (2 Bft) O-NO45 75 0 min 0 min 8,2 C 11,6 C
01.09.2012 19:14 13,5 C 68 % 1024 hPa 0,0 l/m 10,3 km/h (2 Bft) O67.5 95 0 min 0 min 7,7 C 11,3 C
01.09.2012 19:29 13,0 C 69 % 1023 hPa 0,0 l/m 7,6 km/h (2 Bft) O 90 0 min 0 min 7,4 C 12,2 C
01.09.2012 19:44 12,6 C 71 % 1024 hPa 0,0 l/m 8,5 km/h (2 Bft) O-NO22.5 70 0 min 0 min 7,5 C 11,3 C
01.09.2012 19:59 11,9 C 72 % 1024 hPa 0,0 l/m 6,9 km/h (2 Bft) NO 35 0 min 0 min 7,0 C 11,6 C
01.09.2012 20:14 11,1 C 73 % 1024 hPa 0,0 l/m 0,0 km/h (0 Bft) N-NO 30 0 min 0 min 6,4 C 11,1 C
01.09.2012 20:28 10,4 C 74 % 1024 hPa 0,0 l/m 0,0 km/h (0 Bft) N-NO 30 0 min 0 min 6,0 C 10,4 C
01.09.2012 20:44 9,4 C 76 % 1024 hPa 0,0 l/m 0,0 km/h (0 Bft) N-NO 30 0 min 0 min 5,4 C 9,4 C
01.09.2012 20:59 8,4 C 78 % 1024 hPa 0,0 l/m 0,0 km/h (0 Bft) N-NO 30 0 min 0 min 4,8 C 8,4 C
01.09.2012 21:14 7,6 C 80 % 1024 hPa 0,0 l/m 0,0 km/h (0 Bft) N-NO 30 0 min 0 min 4,4 C 7,6 C
01.09.2012 21:29 7,3 C 82 % 1024 hPa 0,0 l/m 0,0 km/h (0 Bft) N-NO 30 0 min 0 min 4,4 C 7,3 C
01.09.2012 21:44 6,8 C 82 % 1024 hPa 0,0 l/m 0,0 km/h (0 Bft) N-NO 30 0 min 0 min 3,9 C 6,8 C
01.09.2012 21:58 6,4 C 84 % 1024 hPa 0,0 l/m 0,0 km/h (0 Bft) N-NO 30 0 min 0 min 3,9 C 6,4 C
01.09.2012 22:14 6,1 C 85 % 1024 hPa 0,0 l/m 0,0 km/h (0 Bft) N-NO 30 0 min 0 min 3,8 C 6,1 C
01.09.2012 22:29 5,6 C 85 % 1025 hPa 0,0 l/m 0,0 km/h (0 Bft) N-NO 30 0 min 0 min 3,3 C 5,6 C
01.09.2012 22:44 5,2 C 86 % 1025 hPa 0,0 l/m 0,0 km/h (0 Bft) N-NO 30 0 min 0 min 3,1 C 5,2 C
01.09.2012 22:59 4,7 C 86 % 1025 hPa 0,0 l/m 0,0 km/h (0 Bft) N-NO 30 0 min 0 min 2,6 C 4,7 C
01.09.2012 23:14 4,4 C 86 % 1024 hPa 0,0 l/m 0,0 km/h (0 Bft) N-NO 30 0 min 0 min 2,3 C 4,4 C
01.09.2012 23:28 4,1 C 87 % 1024 hPa 0,0 l/m 0,0 km/h (0 Bft) N-NO 30 0 min 0 min 2,1 C 4,1 C
01.09.2012 23:44 3,7 C 88 % 1024 hPa 0,0 l/m 0,0 km/h (0 Bft) N-NO 30 0 min 0 min 1,9 C 3,7 C
01.09.2012 23:59 3,7 C 88 % 1024 hPa 0,0 l/m 0,0 km/h (0 Bft) N-NO 30 0 min 0 min 1,9 C 3,7 C
_ Min-Zeit 23:44 16:44 00:38 - 20:14 - - - - 23:44 00:08
Minimum _ 3,7 C 61 % 1022 hPa - 0,0 km/h (0 Bft) - - - - 1,9 C 0,2 C
_ Max-Zeit 16:59 01:08 11:14 00:08 13:29 - - 00:08 00:08 15:58 15:58
Maximum _ 15,6 C 94 % 1025 hPa 0,0 l/m 25,1 km/h
N-NO (4 Bft)
- - 0 min 0 min 8,7 C 13,1 C
Durchschnitt _ 10,1 C 80 % 1024 hPa #0,0 l/m 13,2 km/h (3 Bft) N-NO - #0 min. #0 min. 6,6 C 6,1 C